sensor_id;sensor_type;location;lat;lon;timestamp;pressure;altitude;pressure_sealevel;temperature;humidity
57000;BME280;42891;50.006;21.964;2024-03-08T00:01:14;51177.03;;;-146.02;67.00
57000;BME280;42891;50.006;21.964;2024-03-08T00:05:16;51203.06;;;-146.02;67.20
57000;BME280;42891;50.006;21.964;2024-03-08T00:09:18;51213.09;;;-146.02;66.91
57000;BME280;42891;50.006;21.964;2024-03-08T00:13:18;51241.16;;;-146.02;66.70
57000;BME280;42891;50.006;21.964;2024-03-08T00:17:18;51197.06;;;-146.02;67.08
57000;BME280;42891;50.006;21.964;2024-03-08T00:21:19;51211.09;;;-146.02;66.54
57000;BME280;42891;50.006;21.964;2024-03-08T00:25:19;51221.09;;;-146.02;66.78
57000;BME280;42891;50.006;21.964;2024-03-08T00:29:20;51189.03;;;-146.02;67.08
57000;BME280;42891;50.006;21.964;2024-03-08T00:33:20;51209.09;;;-146.02;67.34
57000;BME280;42891;50.006;21.964;2024-03-08T00:37:21;51215.09;;;-146.02;67.69
57000;BME280;42891;50.006;21.964;2024-03-08T00:41:22;51217.09;;;-146.02;67.64
57000;BME280;42891;50.006;21.964;2024-03-08T00:45:22;51243.16;;;-146.02;66.86
57000;BME280;42891;50.006;21.964;2024-03-08T00:49:23;51189.03;;;-146.02;67.14
57000;BME280;42891;50.006;21.964;2024-03-08T00:53:23;51221.09;;;-146.02;67.29
57000;BME280;42891;50.006;21.964;2024-03-08T00:57:24;51177.03;;;-146.02;67.55
57000;BME280;42891;50.006;21.964;2024-03-08T01:01:24;51161.00;;;-146.02;68.18
57000;BME280;42891;50.006;21.964;2024-03-08T01:05:24;51161.00;;;-146.02;68.17
57000;BME280;42891;50.006;21.964;2024-03-08T01:09:25;51201.06;;;-146.02;67.71
57000;BME280;42891;50.006;21.964;2024-03-08T01:13:26;51177.03;;;-146.02;68.07
57000;BME280;42891;50.006;21.964;2024-03-08T01:17:27;51175.00;;;-146.02;68.44
57000;BME280;42891;50.006;21.964;2024-03-08T01:21:27;51169.00;;;-146.02;68.89
57000;BME280;42891;50.006;21.964;2024-03-08T01:25:27;51199.06;;;-146.02;68.80
57000;BME280;42891;50.006;21.964;2024-03-08T01:29:28;51177.03;;;-146.02;69.36
57000;BME280;42891;50.006;21.964;2024-03-08T01:33:29;51225.13;;;-146.02;69.66
57000;BME280;42891;50.006;21.964;2024-03-08T01:37:31;51241.16;;;-146.02;69.46
57000;BME280;42891;50.006;21.964;2024-03-08T01:41:31;51229.13;;;-146.02;69.87
57000;BME280;42891;50.006;21.964;2024-03-08T01:45:32;51185.03;;;-146.02;69.88
57000;BME280;42891;50.006;21.964;2024-03-08T01:49:34;51205.06;;;-146.02;70.03
57000;BME280;42891;50.006;21.964;2024-03-08T01:53:35;51191.03;;;-146.02;69.83
57000;BME280;42891;50.006;21.964;2024-03-08T01:57:35;51187.03;;;-146.02;69.74
57000;BME280;42891;50.006;21.964;2024-03-08T02:01:37;51217.09;;;-146.02;69.78
57000;BME280;42891;50.006;21.964;2024-03-08T02:05:40;51217.09;;;-146.02;69.99
57000;BME280;42891;50.006;21.964;2024-03-08T02:09:41;51193.06;;;-146.02;70.13
57000;BME280;42891;50.006;21.964;2024-03-08T02:13:41;51201.06;;;-146.02;69.82
57000;BME280;42891;50.006;21.964;2024-03-08T02:17:41;51175.00;;;-146.02;69.80
57000;BME280;42891;50.006;21.964;2024-03-08T02:21:43;51179.03;;;-146.02;70.72
57000;BME280;42891;50.006;21.964;2024-03-08T02:25:43;51193.06;;;-146.02;70.92
57000;BME280;42891;50.006;21.964;2024-03-08T02:29:44;51205.06;;;-146.02;71.00
57000;BME280;42891;50.006;21.964;2024-03-08T02:33:45;51223.09;;;-146.02;71.09
57000;BME280;42891;50.006;21.964;2024-03-08T02:37:47;51193.06;;;-146.02;71.04
57000;BME280;42891;50.006;21.964;2024-03-08T02:41:47;51183.03;;;-146.02;70.89
57000;BME280;42891;50.006;21.964;2024-03-08T02:45:48;51217.09;;;-146.02;70.75
57000;BME280;42891;50.006;21.964;2024-03-08T02:49:48;51203.06;;;-146.02;70.18
57000;BME280;42891;50.006;21.964;2024-03-08T02:53:50;51205.06;;;-146.02;69.68
57000;BME280;42891;50.006;21.964;2024-03-08T02:57:52;51211.09;;;-146.02;70.26
57000;BME280;42891;50.006;21.964;2024-03-08T03:01:54;51197.06;;;-146.02;70.09
57000;BME280;42891;50.006;21.964;2024-03-08T03:05:54;51227.13;;;-146.02;69.99
57000;BME280;42891;50.006;21.964;2024-03-08T03:09:58;51215.09;;;-146.02;70.20
57000;BME280;42891;50.006;21.964;2024-03-08T03:13:58;51205.06;;;-146.02;69.85
57000;BME280;42891;50.006;21.964;2024-03-08T03:17:58;51213.09;;;-146.02;70.16
57000;BME280;42891;50.006;21.964;2024-03-08T03:21:58;51171.00;;;-146.02;70.42
57000;BME280;42891;50.006;21.964;2024-03-08T03:25:59;51201.06;;;-146.02;70.26
57000;BME280;42891;50.006;21.964;2024-03-08T03:30:00;51191.03;;;-146.02;70.39
57000;BME280;42891;50.006;21.964;2024-03-08T03:34:20;51215.09;;;-146.02;70.70
57000;BME280;42891;50.006;21.964;2024-03-08T03:38:20;51199.06;;;-146.02;70.88
57000;BME280;42891;50.006;21.964;2024-03-08T03:42:23;51227.13;;;-146.02;71.45
57000;BME280;42891;50.006;21.964;2024-03-08T03:46:24;51229.13;;;-146.02;71.14
57000;BME280;42891;50.006;21.964;2024-03-08T03:50:24;51209.09;;;-146.02;71.22
57000;BME280;42891;50.006;21.964;2024-03-08T03:54:25;51237.13;;;-146.02;71.63
57000;BME280;42891;50.006;21.964;2024-03-08T03:58:25;51183.03;;;-146.02;71.30
57000;BME280;42891;50.006;21.964;2024-03-08T04:02:27;51179.03;;;-146.02;71.30
57000;BME280;42891;50.006;21.964;2024-03-08T04:06:27;51209.09;;;-146.02;71.44
57000;BME280;42891;50.006;21.964;2024-03-08T04:10:28;51217.09;;;-146.02;71.27
57000;BME280;42891;50.006;21.964;2024-03-08T04:14:28;51173.00;;;-146.02;70.81
57000;BME280;42891;50.006;21.964;2024-03-08T04:18:29;51207.06;;;-146.02;70.97
57000;BME280;42891;50.006;21.964;2024-03-08T04:22:29;51183.03;;;-146.02;70.61
57000;BME280;42891;50.006;21.964;2024-03-08T04:26:29;51197.06;;;-146.02;70.72
57000;BME280;42891;50.006;21.964;2024-03-08T04:30:30;51207.06;;;-146.02;70.48
57000;BME280;42891;50.006;21.964;2024-03-08T04:34:31;51167.00;;;-146.02;70.78
57000;BME280;42891;50.006;21.964;2024-03-08T04:38:31;51205.06;;;-146.02;70.31
57000;BME280;42891;50.006;21.964;2024-03-08T04:42:31;51189.03;;;-146.02;70.21
57000;BME280;42891;50.006;21.964;2024-03-08T04:46:33;51221.09;;;-146.02;70.48
57000;BME280;42891;50.006;21.964;2024-03-08T04:50:34;51189.03;;;-146.02;70.15
57000;BME280;42891;50.006;21.964;2024-03-08T04:54:35;51197.06;;;-146.02;70.15
57000;BME280;42891;50.006;21.964;2024-03-08T04:58:35;51207.06;;;-146.02;70.70
57000;BME280;42891;50.006;21.964;2024-03-08T05:02:37;51167.00;;;-146.02;70.90
57000;BME280;42891;50.006;21.964;2024-03-08T05:06:38;51163.00;;;-146.02;71.43
57000;BME280;42891;50.006;21.964;2024-03-08T05:10:39;51225.13;;;-146.02;71.23
57000;BME280;42891;50.006;21.964;2024-03-08T05:14:39;51175.00;;;-146.02;70.99
57000;BME280;42891;50.006;21.964;2024-03-08T05:18:39;51235.13;;;-146.02;71.48
57000;BME280;42891;50.006;21.964;2024-03-08T05:22:40;51191.03;;;-146.02;70.86
57000;BME280;42891;50.006;21.964;2024-03-08T05:26:40;51169.00;;;-146.02;71.69
57000;BME280;42891;50.006;21.964;2024-03-08T05:30:41;51207.06;;;-146.02;71.98
57000;BME280;42891;50.006;21.964;2024-03-08T05:34:42;51193.06;;;-146.02;71.70
57000;BME280;42891;50.006;21.964;2024-03-08T05:38:43;51221.09;;;-146.02;72.12
57000;BME280;42891;50.006;21.964;2024-03-08T05:42:43;51193.06;;;-146.02;72.36
57000;BME280;42891;50.006;21.964;2024-03-08T05:46:44;51219.09;;;-146.02;72.50
57000;BME280;42891;50.006;21.964;2024-03-08T05:50:44;51213.09;;;-146.02;72.45
57000;BME280;42891;50.006;21.964;2024-03-08T05:54:45;51217.09;;;-146.02;72.46
57000;BME280;42891;50.006;21.964;2024-03-08T05:58:46;51235.13;;;-146.02;73.10
57000;BME280;42891;50.006;21.964;2024-03-08T06:02:46;51205.06;;;-146.02;72.70
57000;BME280;42891;50.006;21.964;2024-03-08T06:06:46;51185.03;;;-146.02;72.72
57000;BME280;42891;50.006;21.964;2024-03-08T06:10:47;51187.03;;;-146.02;71.87
57000;BME280;42891;50.006;21.964;2024-03-08T06:14:52;51183.03;;;-146.02;72.12
57000;BME280;42891;50.006;21.964;2024-03-08T06:18:52;51227.13;;;-146.02;72.27
57000;BME280;42891;50.006;21.964;2024-03-08T06:22:53;51187.03;;;-146.02;72.58
57000;BME280;42891;50.006;21.964;2024-03-08T06:26:53;51195.06;;;-146.02;72.06
57000;BME280;42891;50.006;21.964;2024-03-08T06:30:54;51219.09;;;-146.02;71.83
57000;BME280;42891;50.006;21.964;2024-03-08T06:34:54;51189.03;;;-146.02;72.02
57000;BME280;42891;50.006;21.964;2024-03-08T06:38:54;51193.06;;;-146.02;71.01
57000;BME280;42891;50.006;21.964;2024-03-08T06:42:56;51183.03;;;-146.02;70.89
57000;BME280;42891;50.006;21.964;2024-03-08T06:46:56;51181.03;;;-146.02;71.55
57000;BME280;42891;50.006;21.964;2024-03-08T06:50:56;51201.06;;;-146.02;70.94
57000;BME280;42891;50.006;21.964;2024-03-08T06:54:57;51217.09;;;-146.02;70.99
57000;BME280;42891;50.006;21.964;2024-03-08T06:58:58;51189.03;;;-146.02;70.50
57000;BME280;42891;50.006;21.964;2024-03-08T07:02:58;51207.06;;;-146.02;70.45
57000;BME280;42891;50.006;21.964;2024-03-08T07:07:00;51183.03;;;-146.02;70.17
57000;BME280;42891;50.006;21.964;2024-03-08T07:11:02;51185.03;;;-146.02;70.34
57000;BME280;42891;50.006;21.964;2024-03-08T07:15:05;51175.00;;;-146.02;69.95
57000;BME280;42891;50.006;21.964;2024-03-08T07:19:05;51177.03;;;-146.02;69.88
57000;BME280;42891;50.006;21.964;2024-03-08T07:23:06;51207.06;;;-146.02;69.27
57000;BME280;42891;50.006;21.964;2024-03-08T07:27:06;51163.00;;;-146.02;68.67
57000;BME280;42891;50.006;21.964;2024-03-08T07:31:07;51193.06;;;-146.02;68.84
57000;BME280;42891;50.006;21.964;2024-03-08T07:35:25;51171.00;;;-146.02;70.18
57000;BME280;42891;50.006;21.964;2024-03-08T07:39:26;51191.03;;;-146.02;69.44
57000;BME280;42891;50.006;21.964;2024-03-08T07:43:26;51199.06;;;-146.02;69.44
57000;BME280;42891;50.006;21.964;2024-03-08T07:47:27;51209.09;;;-146.02;68.47
57000;BME280;42891;50.006;21.964;2024-03-08T07:51:27;51221.09;;;-146.02;67.46
57000;BME280;42891;50.006;21.964;2024-03-08T07:55:27;51189.03;;;-146.02;67.37
57000;BME280;42891;50.006;21.964;2024-03-08T07:59:29;51193.06;;;-146.02;67.33
57000;BME280;42891;50.006;21.964;2024-03-08T08:03:30;51201.06;;;-146.02;67.79
57000;BME280;42891;50.006;21.964;2024-03-08T08:07:31;51215.09;;;-146.02;66.90
57000;BME280;42891;50.006;21.964;2024-03-08T08:11:31;51215.09;;;-146.02;66.13
57000;BME280;42891;50.006;21.964;2024-03-08T08:15:32;51195.06;;;-146.02;67.35
57000;BME280;42891;50.006;21.964;2024-03-08T08:19:34;51209.09;;;-146.02;66.53
57000;BME280;42891;50.006;21.964;2024-03-08T08:23:35;51167.00;;;-146.02;66.03
57000;BME280;42891;50.006;21.964;2024-03-08T08:27:36;51217.09;;;-146.02;67.61
57000;BME280;42891;50.006;21.964;2024-03-08T08:31:39;51243.16;;;-146.02;66.37
57000;BME280;42891;50.006;21.964;2024-03-08T08:35:40;51205.06;;;-146.02;66.11
57000;BME280;42891;50.006;21.964;2024-03-08T08:39:40;51205.06;;;-146.02;64.79
57000;BME280;42891;50.006;21.964;2024-03-08T08:43:40;51205.06;;;-146.02;65.84
57000;BME280;42891;50.006;21.964;2024-03-08T08:47:44;51158.97;;;-146.02;65.78
57000;BME280;42891;50.006;21.964;2024-03-08T08:51:49;51173.00;;;-146.02;64.09
57000;BME280;42891;50.006;21.964;2024-03-08T08:55:49;51197.06;;;-146.02;64.35
57000;BME280;42891;50.006;21.964;2024-03-08T08:59:50;51203.06;;;-146.02;64.45
57000;BME280;42891;50.006;21.964;2024-03-08T09:03:50;51205.06;;;-146.02;64.35
57000;BME280;42891;50.006;21.964;2024-03-08T09:07:52;51177.03;;;-146.02;63.16
57000;BME280;42891;50.006;21.964;2024-03-08T09:11:53;51225.13;;;-146.02;62.34
57000;BME280;42891;50.006;21.964;2024-03-08T09:15:54;51154.97;;;-146.02;62.54
57000;BME280;42891;50.006;21.964;2024-03-08T09:19:54;51193.06;;;-146.02;62.17
57000;BME280;42891;50.006;21.964;2024-03-08T09:23:55;51201.06;;;-146.02;62.36
57000;BME280;42891;50.006;21.964;2024-03-08T09:27:55;51148.97;;;-146.02;61.44
57000;BME280;42891;50.006;21.964;2024-03-08T09:31:56;51201.06;;;-146.02;60.53
57000;BME280;42891;50.006;21.964;2024-03-08T09:35:56;51209.09;;;-146.02;61.28
57000;BME280;42891;50.006;21.964;2024-03-08T09:39:57;51181.03;;;-146.02;59.57
57000;BME280;42891;50.006;21.964;2024-03-08T09:43:59;51187.03;;;-146.02;61.09
57000;BME280;42891;50.006;21.964;2024-03-08T09:48:00;51203.06;;;-146.02;60.32
57000;BME280;42891;50.006;21.964;2024-03-08T09:52:02;51183.03;;;-146.02;59.43
57000;BME280;42891;50.006;21.964;2024-03-08T09:56:05;51225.13;;;-146.02;59.93
57000;BME280;42891;50.006;21.964;2024-03-08T10:00:06;51241.16;;;-146.02;58.57
57000;BME280;42891;50.006;21.964;2024-03-08T10:04:23;51189.03;;;-146.02;57.83
57000;BME280;42891;50.006;21.964;2024-03-08T10:08:23;51199.06;;;-146.02;59.35
57000;BME280;42891;50.006;21.964;2024-03-08T10:12:24;51177.03;;;-146.02;59.37
57000;BME280;42891;50.006;21.964;2024-03-08T10:16:26;51152.97;;;-146.02;59.96
57000;BME280;42891;50.006;21.964;2024-03-08T10:20:27;51195.06;;;-146.02;58.95
57000;BME280;42891;50.006;21.964;2024-03-08T10:24:27;51199.06;;;-146.02;59.16
57000;BME280;42891;50.006;21.964;2024-03-08T10:28:27;51169.00;;;-146.02;59.85
57000;BME280;42891;50.006;21.964;2024-03-08T10:32:28;51203.06;;;-146.02;57.88
57000;BME280;42891;50.006;21.964;2024-03-08T10:36:28;51209.09;;;-146.02;56.27
57000;BME280;42891;50.006;21.964;2024-03-08T10:40:29;51191.03;;;-146.02;57.90
57000;BME280;42891;50.006;21.964;2024-03-08T10:48:31;51187.03;;;-146.02;54.82
57000;BME280;42891;50.006;21.964;2024-03-08T10:52:32;51158.97;;;-146.02;57.20
57000;BME280;42891;50.006;21.964;2024-03-08T10:56:32;51205.06;;;-146.02;57.72
57000;BME280;42891;50.006;21.964;2024-03-08T11:00:32;51152.97;;;-146.02;56.83
57000;BME280;42891;50.006;21.964;2024-03-08T11:04:33;51201.06;;;-146.02;56.70
57000;BME280;42891;50.006;21.964;2024-03-08T11:08:36;51193.06;;;-146.02;56.40
57000;BME280;42891;50.006;21.964;2024-03-08T11:12:37;51156.97;;;-146.02;55.89
57000;BME280;42891;50.006;21.964;2024-03-08T11:16:38;51205.06;;;-146.02;56.27
57000;BME280;42891;50.006;21.964;2024-03-08T11:20:41;51154.97;;;-146.02;57.21
57000;BME280;42891;50.006;21.964;2024-03-08T11:24:41;51165.00;;;-146.02;56.52
57000;BME280;42891;50.006;21.964;2024-03-08T11:28:42;51163.00;;;-146.02;56.60
57000;BME280;42891;50.006;21.964;2024-03-08T11:32:45;51173.00;;;-146.02;55.85
57000;BME280;42891;50.006;21.964;2024-03-08T11:36:48;51144.97;;;-146.02;56.80
57000;BME280;42891;50.006;21.964;2024-03-08T11:40:50;51197.06;;;-146.02;54.96
57000;BME280;42891;50.006;21.964;2024-03-08T11:44:50;51237.13;;;-146.02;53.68
57000;BME280;42891;50.006;21.964;2024-03-08T11:48:54;51223.09;;;-146.02;52.97
57000;BME280;42891;50.006;21.964;2024-03-08T11:53:05;51156.97;;;-146.02;52.09
57000;BME280;42891;50.006;21.964;2024-03-08T11:57:05;51144.97;;;-146.02;51.66
57000;BME280;42891;50.006;21.964;2024-03-08T12:01:07;51197.06;;;-146.02;52.26
57000;BME280;42891;50.006;21.964;2024-03-08T12:05:19;51156.97;;;-146.02;50.88
57000;BME280;42891;50.006;21.964;2024-03-08T12:09:19;51183.03;;;-146.02;49.80
57000;BME280;42891;50.006;21.964;2024-03-08T12:13:22;51169.00;;;-146.02;49.55
57000;BME280;42891;50.006;21.964;2024-03-08T12:17:23;51108.88;;;-146.02;46.98
57000;BME280;42891;50.006;21.964;2024-03-08T12:21:25;51177.03;;;-146.02;46.51
57000;BME280;42891;50.006;21.964;2024-03-08T12:25:33;51134.94;;;-146.02;44.56
57000;BME280;42891;50.006;21.964;2024-03-08T12:29:38;51122.91;;;-146.02;44.01
57000;BME280;42891;50.006;21.964;2024-03-08T12:33:53;51181.03;;;-146.02;41.87
57000;BME280;42891;50.006;21.964;2024-03-08T12:37:55;51146.97;;;-146.02;41.07
57000;BME280;42891;50.006;21.964;2024-03-08T12:41:56;51156.97;;;-146.02;41.42
57000;BME280;42891;50.006;21.964;2024-03-08T12:46:02;51130.94;;;-146.02;42.49
57000;BME280;42891;50.006;21.964;2024-03-08T12:50:04;51156.97;;;-146.02;38.98
57000;BME280;42891;50.006;21.964;2024-03-08T12:54:05;51152.97;;;-146.02;38.74
57000;BME280;42891;50.006;21.964;2024-03-08T12:58:07;51116.91;;;-146.02;40.26
57000;BME280;42891;50.006;21.964;2024-03-08T13:02:07;51146.97;;;-146.02;38.72
57000;BME280;42891;50.006;21.964;2024-03-08T13:06:11;51108.88;;;-146.02;38.88
57000;BME280;42891;50.006;21.964;2024-03-08T13:10:12;51116.91;;;-146.02;37.86
57000;BME280;42891;50.006;21.964;2024-03-08T13:14:14;51092.84;;;-146.02;36.64
57000;BME280;42891;50.006;21.964;2024-03-08T13:18:14;51098.88;;;-146.02;36.78
57000;BME280;42891;50.006;21.964;2024-03-08T13:22:16;51064.81;;;-146.02;34.72
57000;BME280;42891;50.006;21.964;2024-03-08T13:26:17;51078.84;;;-146.02;34.79
57000;BME280;42891;50.006;21.964;2024-03-08T13:30:18;51036.75;;;-146.02;34.18
57000;BME280;42891;50.006;21.964;2024-03-08T13:34:18;51044.78;;;-146.02;33.28
57000;BME280;42891;50.006;21.964;2024-03-08T13:38:19;51076.81;;;-146.02;32.76
57000;BME280;42891;50.006;21.964;2024-03-08T13:42:20;51064.81;;;-146.02;33.09
57000;BME280;42891;50.006;21.964;2024-03-08T13:46:20;51012.72;;;-146.02;32.38
57000;BME280;42891;50.006;21.964;2024-03-08T13:50:21;51082.84;;;-146.02;33.08
57000;BME280;42891;50.006;21.964;2024-03-08T13:54:21;51050.78;;;-146.02;32.11
57000;BME280;42891;50.006;21.964;2024-03-08T13:58:22;51072.81;;;-146.02;32.68
57000;BME280;42891;50.006;21.964;2024-03-08T14:02:22;51032.75;;;-146.02;33.54
57000;BME280;42891;50.006;21.964;2024-03-08T14:06:24;51054.78;;;-146.02;32.76
57000;BME280;42891;50.006;21.964;2024-03-08T14:10:25;51080.84;;;-146.02;33.75
57000;BME280;42891;50.006;21.964;2024-03-08T14:14:27;51032.75;;;-146.02;32.59
57000;BME280;42891;50.006;21.964;2024-03-08T14:18:27;51046.78;;;-146.02;32.55
57000;BME280;42891;50.006;21.964;2024-03-08T14:22:29;51082.84;;;-146.02;34.28
57000;BME280;42891;50.006;21.964;2024-03-08T14:26:31;51088.84;;;-146.02;34.96
57000;BME280;42891;50.006;21.964;2024-03-08T14:30:32;51086.84;;;-146.02;34.36
57000;BME280;42891;50.006;21.964;2024-03-08T14:34:32;51096.88;;;-146.02;35.19
57000;BME280;42891;50.006;21.964;2024-03-08T14:38:33;51082.84;;;-146.02;34.88
57000;BME280;42891;50.006;21.964;2024-03-08T14:42:34;51090.84;;;-146.02;35.45
57000;BME280;42891;50.006;21.964;2024-03-08T14:46:35;51092.84;;;-146.02;36.14
57000;BME280;42891;50.006;21.964;2024-03-08T14:50:35;51088.84;;;-146.02;36.33
57000;BME280;42891;50.006;21.964;2024-03-08T14:54:36;51096.88;;;-146.02;37.53
57000;BME280;42891;50.006;21.964;2024-03-08T14:58:37;51082.84;;;-146.02;37.51
57000;BME280;42891;50.006;21.964;2024-03-08T15:02:39;51112.91;;;-146.02;38.26
57000;BME280;42891;50.006;21.964;2024-03-08T15:06:40;51112.91;;;-146.02;38.83
57000;BME280;42891;50.006;21.964;2024-03-08T15:10:42;51100.88;;;-146.02;39.62
57000;BME280;42891;50.006;21.964;2024-03-08T15:14:44;51092.84;;;-146.02;39.56
57000;BME280;42891;50.006;21.964;2024-03-08T15:18:45;51098.88;;;-146.02;40.23
57000;BME280;42891;50.006;21.964;2024-03-08T15:22:48;51124.91;;;-146.02;41.04
57000;BME280;42891;50.006;21.964;2024-03-08T15:26:48;51116.91;;;-146.02;41.57
57000;BME280;42891;50.006;21.964;2024-03-08T15:30:51;51118.91;;;-146.02;41.54
57000;BME280;42891;50.006;21.964;2024-03-08T15:34:55;51078.84;;;-146.02;42.44
57000;BME280;42891;50.006;21.964;2024-03-08T15:38:55;51114.91;;;-146.02;42.99
57000;BME280;42891;50.006;21.964;2024-03-08T15:42:59;51102.88;;;-146.02;43.09
57000;BME280;42891;50.006;21.964;2024-03-08T15:46:59;51120.91;;;-146.02;44.19
57000;BME280;42891;50.006;21.964;2024-03-08T15:51:01;51118.91;;;-146.02;44.86
57000;BME280;42891;50.006;21.964;2024-03-08T15:55:06;51132.94;;;-146.02;44.63
57000;BME280;42891;50.006;21.964;2024-03-08T15:59:07;51150.97;;;-146.02;44.79
57000;BME280;42891;50.006;21.964;2024-03-08T16:03:07;51118.91;;;-146.02;45.00
57000;BME280;42891;50.006;21.964;2024-03-08T16:07:11;51102.88;;;-146.02;45.16
57000;BME280;42891;50.006;21.964;2024-03-08T16:11:11;51120.91;;;-146.02;45.64
57000;BME280;42891;50.006;21.964;2024-03-08T16:15:12;51106.88;;;-146.02;45.65
57000;BME280;42891;50.006;21.964;2024-03-08T16:19:12;51150.97;;;-146.02;46.06
57000;BME280;42891;50.006;21.964;2024-03-08T16:23:14;51140.94;;;-146.02;45.16
57000;BME280;42891;50.006;21.964;2024-03-08T16:27:17;51118.91;;;-146.02;45.74
57000;BME280;42891;50.006;21.964;2024-03-08T16:31:17;51088.84;;;-146.02;46.28
57000;BME280;42891;50.006;21.964;2024-03-08T16:35:19;51128.94;;;-146.02;46.35
57000;BME280;42891;50.006;21.964;2024-03-08T16:39:19;51112.91;;;-146.02;47.25
57000;BME280;42891;50.006;21.964;2024-03-08T16:43:20;51132.94;;;-146.02;47.15
57000;BME280;42891;50.006;21.964;2024-03-08T16:47:21;51138.94;;;-146.02;46.73
57000;BME280;42891;50.006;21.964;2024-03-08T16:51:22;51128.94;;;-146.02;46.50
57000;BME280;42891;50.006;21.964;2024-03-08T16:55:23;51078.84;;;-146.02;46.06
57000;BME280;42891;50.006;21.964;2024-03-08T16:59:23;51118.91;;;-146.02;45.83
57000;BME280;42891;50.006;21.964;2024-03-08T17:03:24;51114.91;;;-146.02;46.14
57000;BME280;42891;50.006;21.964;2024-03-08T17:07:24;51116.91;;;-146.02;45.88
57000;BME280;42891;50.006;21.964;2024-03-08T17:11:24;51148.97;;;-146.02;45.67
57000;BME280;42891;50.006;21.964;2024-03-08T17:15:26;51165.00;;;-146.02;45.45
57000;BME280;42891;50.006;21.964;2024-03-08T17:19:27;51120.91;;;-146.02;45.42
57000;BME280;42891;50.006;21.964;2024-03-08T17:23:27;51082.84;;;-146.02;46.06
57000;BME280;42891;50.006;21.964;2024-03-08T17:27:27;51134.94;;;-146.02;46.57
57000;BME280;42891;50.006;21.964;2024-03-08T17:31:28;51132.94;;;-146.02;46.89
57000;BME280;42891;50.006;21.964;2024-03-08T17:35:30;51156.97;;;-146.02;46.73
57000;BME280;42891;50.006;21.964;2024-03-08T17:39:32;51110.91;;;-146.02;46.98
57000;BME280;42891;50.006;21.964;2024-03-08T17:43:33;51114.91;;;-146.02;47.29
57000;BME280;42891;50.006;21.964;2024-03-08T17:47:34;51102.88;;;-146.02;47.31
57000;BME280;42891;50.006;21.964;2024-03-08T17:51:35;51144.97;;;-146.02;48.08
57000;BME280;42891;50.006;21.964;2024-03-08T17:55:35;51090.84;;;-146.02;48.36
57000;BME280;42891;50.006;21.964;2024-03-08T17:59:37;51128.94;;;-146.02;48.05
57000;BME280;42891;50.006;21.964;2024-03-08T18:03:37;51120.91;;;-146.02;48.33
57000;BME280;42891;50.006;21.964;2024-03-08T18:07:38;51120.91;;;-146.02;49.06
57000;BME280;42891;50.006;21.964;2024-03-08T18:11:39;51165.00;;;-146.02;49.22
57000;BME280;42891;50.006;21.964;2024-03-08T18:15:40;51098.88;;;-146.02;50.42
57000;BME280;42891;50.006;21.964;2024-03-08T18:19:40;51169.00;;;-146.02;50.49
57000;BME280;42891;50.006;21.964;2024-03-08T18:23:41;51088.84;;;-146.02;50.47
57000;BME280;42891;50.006;21.964;2024-03-08T18:27:45;51110.91;;;-146.02;50.04
57000;BME280;42891;50.006;21.964;2024-03-08T18:31:47;51128.94;;;-146.02;50.57
57000;BME280;42891;50.006;21.964;2024-03-08T18:35:48;51114.91;;;-146.02;51.17
57000;BME280;42891;50.006;21.964;2024-03-08T18:39:48;51187.03;;;-146.02;51.86
57000;BME280;42891;50.006;21.964;2024-03-08T18:43:50;51138.94;;;-146.02;53.65
57000;BME280;42891;50.006;21.964;2024-03-08T18:47:52;51142.97;;;-146.02;53.25
57000;BME280;42891;50.006;21.964;2024-03-08T18:51:52;51128.94;;;-146.02;53.04
57000;BME280;42891;50.006;21.964;2024-03-08T18:55:54;51112.91;;;-146.02;53.61
57000;BME280;42891;50.006;21.964;2024-03-08T18:59:54;51140.94;;;-146.02;53.43
57000;BME280;42891;50.006;21.964;2024-03-08T19:03:55;51167.00;;;-146.02;54.33
57000;BME280;42891;50.006;21.964;2024-03-08T19:07:55;51148.97;;;-146.02;53.79
57000;BME280;42891;50.006;21.964;2024-03-08T19:11:56;51092.84;;;-146.02;53.67
57000;BME280;42891;50.006;21.964;2024-03-08T19:15:57;51165.00;;;-146.02;54.33
57000;BME280;42891;50.006;21.964;2024-03-08T19:19:57;51152.97;;;-146.02;54.04
57000;BME280;42891;50.006;21.964;2024-03-08T19:23:57;51146.97;;;-146.02;55.18
57000;BME280;42891;50.006;21.964;2024-03-08T19:27:59;51169.00;;;-146.02;55.11
57000;BME280;42891;50.006;21.964;2024-03-08T19:32:00;51136.94;;;-146.02;55.24
57000;BME280;42891;50.006;21.964;2024-03-08T19:36:01;51126.94;;;-146.02;55.32
57000;BME280;42891;50.006;21.964;2024-03-08T19:40:09;51148.97;;;-146.02;55.46
57000;BME280;42891;50.006;21.964;2024-03-08T19:44:19;51084.84;;;-146.02;55.59
57000;BME280;42891;50.006;21.964;2024-03-08T19:48:20;51108.88;;;-146.02;55.18
57000;BME280;42891;50.006;21.964;2024-03-08T19:52:20;51136.94;;;-146.02;55.71
57000;BME280;42891;50.006;21.964;2024-03-08T19:56:21;51118.91;;;-146.02;56.48
57000;BME280;42891;50.006;21.964;2024-03-08T20:00:22;51138.94;;;-146.02;55.85
57000;BME280;42891;50.006;21.964;2024-03-08T20:04:33;51120.91;;;-146.02;55.38
57000;BME280;42891;50.006;21.964;2024-03-08T20:08:33;51150.97;;;-146.02;55.79
57000;BME280;42891;50.006;21.964;2024-03-08T20:12:36;51136.94;;;-146.02;57.30
57000;BME280;42891;50.006;21.964;2024-03-08T20:16:39;51148.97;;;-146.02;56.66
57000;BME280;42891;50.006;21.964;2024-03-08T20:20:40;51132.94;;;-146.02;56.06
57000;BME280;42891;50.006;21.964;2024-03-08T20:24:42;51138.94;;;-146.02;56.55
57000;BME280;42891;50.006;21.964;2024-03-08T20:28:43;51146.97;;;-146.02;56.62
57000;BME280;42891;50.006;21.964;2024-03-08T20:32:44;51112.91;;;-146.02;56.81